Time;durP1;ratioP1;P1;durP2;ratioP2;P2;SDS_P1;SDS_P2;PMS_P1;PMS_P2;Temp;Humidity;BMP_temperature;BMP_pressure;BME280_temperature;BME280_humidity;BME280_pressure;Samples;Min_cycle;Max_cycle;Signal;HPM_P1;HPM_P2
2023/01/29 00:00:30;;;;;;;;;;;4.00;99.90;;;;;;5011478;28;20056;-71
2023/01/29 00:02:55;;;;;;;;;;;4.00;99.90;;;;;;5010533;28;20302;-72
2023/01/29 00:05:21;;;;;;;;;;;4.00;99.90;;;;;;5014519;28;19968;-71
2023/01/29 00:07:46;;;;;;;;;;;4.00;99.90;;;;;;5013626;28;19921;-71
2023/01/29 00:10:12;;;;;;;;;;;3.90;99.90;;;;;;5011347;28;19929;-72
2023/01/29 00:12:38;;;;;;;;;;;4.00;99.90;;;;;;5012159;28;19922;-72
2023/01/29 00:15:04;;;;;;;;;;;4.00;99.90;;;;;;5015398;28;19922;-71
2023/01/29 00:17:30;;;;;;;;;;;4.00;99.90;;;;;;5015428;28;19953;-71
2023/01/29 00:19:55;;;;;;;;;;;4.00;99.90;;;;;;5014520;28;19964;-73
2023/01/29 00:22:21;;;;;;;;;;;4.10;99.90;;;;;;5014781;28;19975;-71
2023/01/29 00:24:46;;;;;;;;;;;4.00;99.90;;;;;;5012710;28;20651;-71
2023/01/29 00:27:12;;;;;;;;;;;4.00;99.90;;;;;;5012962;28;19921;-70
2023/01/29 00:29:37;;;;;;;;;;;4.00;99.90;;;;;;5014494;28;20413;-70
2023/01/29 00:32:03;;;;;;;;;;;4.00;99.90;;;;;;5013809;28;19921;-72
2023/01/29 00:34:28;;;;;;;;;;;4.00;99.90;;;;;;5015311;28;20453;-71
2023/01/29 00:37:03;;;;;;;;;;;4.00;99.90;;;;;;5017206;28;19921;-71
2023/01/29 00:39:37;;;;;;;;;;;4.00;99.90;;;;;;5014686;28;20015;-71
2023/01/29 00:44:58;;;;;;;;;;;4.00;99.90;;;;;;5011605;28;20004;-70
2023/01/29 00:47:32;;;;;;;;;;;4.00;99.90;;;;;;5025921;28;19921;-71
2023/01/29 00:49:58;;;;;;;;;;;4.00;99.90;;;;;;5012928;28;19928;-71
2023/01/29 00:52:24;;;;;;;;;;;4.00;99.90;;;;;;5013365;28;19969;-71
2023/01/29 00:54:54;;;;;;;;;;;4.00;99.90;;;;;;5013640;28;20016;-70
2023/01/29 00:57:19;;;;;;;;;;;4.00;99.90;;;;;;5014844;28;19969;-71
2023/01/29 00:59:45;;;;;;;;;;;4.00;99.90;;;;;;5014582;28;19953;-71
2023/01/29 01:04:54;;;;;;;;;;;4.00;99.90;;;;;;5010219;28;19957;-70
2023/01/29 01:07:20;;;;;;;;;;;4.00;99.90;;;;;;5010730;28;20354;-70
2023/01/29 01:12:30;;;;;;;;;;;4.80;99.90;;;;;;5011285;28;19928;-71
2023/01/29 01:14:56;;;;;;;;;;;4.00;99.90;;;;;;5012050;28;19998;-71
2023/01/29 01:17:22;;;;;;;;;;;4.00;99.90;;;;;;5011271;28;19925;-71
2023/01/29 01:19:47;;;;;;;;;;;4.00;99.90;;;;;;5010655;28;20330;-71
2023/01/29 01:22:13;;;;;;;;;;;4.00;99.90;;;;;;5011425;28;19921;-71
2023/01/29 01:24:38;;;;;;;;;;;4.00;99.90;;;;;;5014277;28;20314;-71
2023/01/29 01:27:04;;;;;;;;;;;4.00;99.90;;;;;;5015087;28;20367;-71
2023/01/29 01:29:30;;;;;;;;;;;4.00;99.90;;;;;;5014256;28;19917;-71
2023/01/29 01:31:55;;;;;;;;;;;4.00;99.90;;;;;;5012265;28;20285;-71
2023/01/29 01:34:21;;;;;;;;;;;4.00;99.90;;;;;;5009816;28;19921;-71
2023/01/29 01:36:47;;;;;;;;;;;4.00;99.90;;;;;;5013824;28;19921;-71
2023/01/29 01:39:12;;;;;;;;;;;4.00;99.90;;;;;;5012650;28;19921;-71
2023/01/29 01:41:38;;;;;;;;;;;4.00;99.90;;;;;;5014331;28;19976;-70
2023/01/29 01:44:05;;;;;;;;;;;4.00;99.90;;;;;;5012836;28;19971;-71
2023/01/29 01:46:32;;;;;;;;;;;4.00;99.90;;;;;;5010414;28;19988;-71
2023/01/29 01:49:02;;;;;;;;;;;4.10;99.90;;;;;;5012947;28;20010;-72
2023/01/29 01:51:29;;;;;;;;;;;4.10;99.90;;;;;;5014107;28;19928;-71
2023/01/29 01:53:57;;;;;;;;;;;4.00;99.90;;;;;;5014211;28;20485;-71
2023/01/29 01:56:39;;;;;;;;;;;4.00;99.90;;;;;;5010730;28;19921;-71
2023/01/29 01:59:06;;;;;;;;;;;4.00;99.90;;;;;;5013575;28;19968;-72
2023/01/29 02:01:32;;;;;;;;;;;4.00;99.90;;;;;;5010566;28;20337;-71
2023/01/29 02:09:38;;;;;;;;;;;4.00;99.90;;;;;;5009271;28;20015;-71
2023/01/29 02:12:06;;;;;;;;;;;4.10;99.90;;;;;;5009318;28;20001;-72
2023/01/29 02:14:33;;;;;;;;;;;4.10;99.90;;;;;;5010905;28;19925;-72
2023/01/29 02:17:00;;;;;;;;;;;4.10;99.90;;;;;;5009798;28;20379;-71
2023/01/29 02:19:37;;;;;;;;;;;4.10;99.90;;;;;;5010585;28;19929;-71
2023/01/29 02:22:24;;;;;;;;;;;4.10;99.90;;;;;;5011735;28;20078;-72
2023/01/29 02:24:53;;;;;;;;;;;4.10;99.90;;;;;;5024727;28;19925;-71
2023/01/29 02:27:36;;;;;;;;;;;4.10;99.90;;;;;;5011384;28;20012;-70
2023/01/29 02:30:05;;;;;;;;;;;4.10;99.90;;;;;;5011657;28;19991;-71
2023/01/29 02:32:39;;;;;;;;;;;4.10;99.90;;;;;;5008124;28;19922;-71
2023/01/29 02:35:25;;;;;;;;;;;4.10;99.90;;;;;;5011665;28;20256;-71
2023/01/29 02:38:00;;;;;;;;;;;4.10;99.90;;;;;;5008952;28;19921;-71
2023/01/29 02:40:29;;;;;;;;;;;4.20;99.90;;;;;;5012413;28;19922;-72
2023/01/29 02:42:55;;;;;;;;;;;4.10;99.90;;;;;;5011054;28;19933;-71
2023/01/29 02:45:43;;;;;;;;;;;4.10;99.90;;;;;;5009328;28;19922;-71
2023/01/29 02:48:13;;;;;;;;;;;4.10;99.90;;;;;;5005772;28;19947;-71
2023/01/29 02:50:53;;;;;;;;;;;4.10;99.90;;;;;;5009919;28;20191;-71
2023/01/29 02:53:28;;;;;;;;;;;4.10;99.90;;;;;;5011967;28;19921;-71
2023/01/29 02:55:54;;;;;;;;;;;4.10;99.90;;;;;;5010149;28;19925;-71
2023/01/29 02:58:35;;;;;;;;;;;4.10;99.90;;;;;;5010616;28;20015;-71
2023/01/29 03:01:05;;;;;;;;;;;4.10;99.90;;;;;;5008057;28;19984;-71
2023/01/29 03:03:33;;;;;;;;;;;4.10;99.90;;;;;;5009990;28;19921;-72
2023/01/29 03:06:07;;;;;;;;;;;4.20;99.90;;;;;;5012309;28;19982;-71
2023/01/29 03:08:44;;;;;;;;;;;4.00;99.90;;;;;;5008564;28;20310;-71
2023/01/29 03:11:12;;;;;;;;;;;4.00;99.90;;;;;;5008664;28;19924;-71
2023/01/29 03:14:03;;;;;;;;;;;4.00;99.90;;;;;;5005888;28;19922;-70
2023/01/29 03:16:31;;;;;;;;;;;4.00;99.90;;;;;;5007198;28;19925;-71
2023/01/29 03:19:06;;;;;;;;;;;4.00;99.90;;;;;;5008785;28;19927;-71
2023/01/29 03:21:49;;;;;;;;;;;4.00;99.90;;;;;;5009423;28;19940;-71
2023/01/29 03:32:37;;;;;;;;;;;4.00;99.90;;;;;;5009691;28;19930;-71
2023/01/29 03:35:04;;;;;;;;;;;4.00;99.90;;;;;;5013200;28;19921;-71
2023/01/29 03:37:35;;;;;;;;;;;4.00;99.90;;;;;;5011330;28;19922;-71
2023/01/29 03:40:02;;;;;;;;;;;4.00;99.90;;;;;;5007780;28;19925;-71
2023/01/29 03:42:46;;;;;;;;;;;4.00;99.90;;;;;;5005639;28;20008;-72
2023/01/29 03:45:18;;;;;;;;;;;4.00;99.90;;;;;;5006987;28;19922;-72
2023/01/29 03:48:06;;;;;;;;;;;4.00;99.90;;;;;;5000186;28;20240;-71
2023/01/29 03:50:50;;;;;;;;;;;4.00;99.90;;;;;;5009175;28;19921;-71
2023/01/29 03:53:45;;;;;;;;;;;4.00;99.90;;;;;;5005857;28;19965;-72
2023/01/29 03:56:31;;;;;;;;;;;4.00;99.90;;;;;;4997074;28;19921;-71
2023/01/29 03:59:03;;;;;;;;;;;4.00;99.90;;;;;;5001062;28;19921;-71
2023/01/29 04:01:46;;;;;;;;;;;3.90;99.90;;;;;;5010137;28;19921;-72
2023/01/29 04:04:17;;;;;;;;;;;4.00;99.90;;;;;;5005485;28;19922;-71
2023/01/29 04:06:44;;;;;;;;;;;4.00;99.90;;;;;;5007111;28;19921;-72
2023/01/29 04:09:21;;;;;;;;;;;4.00;99.90;;;;;;5009248;28;19949;-72
2023/01/29 04:11:48;;;;;;;;;;;3.90;99.90;;;;;;5007806;28;19929;-71
2023/01/29 04:14:15;;;;;;;;;;;4.00;99.90;;;;;;5003607;28;19991;-71
2023/01/29 04:16:43;;;;;;;;;;;4.00;99.90;;;;;;5005772;28;19928;-71
2023/01/29 04:19:08;;;;;;;;;;;4.00;99.90;;;;;;5003978;28;20457;-70
2023/01/29 04:21:36;;;;;;;;;;;4.00;99.90;;;;;;5011612;28;20075;-71
2023/01/29 04:24:02;;;;;;;;;;;4.00;99.90;;;;;;5013126;28;19921;-70
2023/01/29 04:26:40;;;;;;;;;;;4.00;99.90;;;;;;5007876;28;19929;-71
2023/01/29 04:29:28;;;;;;;;;;;4.00;99.90;;;;;;5011709;28;20001;-71
2023/01/29 04:31:54;;;;;;;;;;;4.00;99.90;;;;;;5013047;28;19922;-72
2023/01/29 04:34:27;;;;;;;;;;;4.00;99.90;;;;;;5008903;28;19933;-72
2023/01/29 04:37:10;;;;;;;;;;;4.00;99.90;;;;;;5014517;28;20290;-71
2023/01/29 04:39:45;;;;;;;;;;;4.00;99.90;;;;;;5011662;28;20374;-71
2023/01/29 04:42:16;;;;;;;;;;;4.00;99.90;;;;;;5012800;28;20271;-71
2023/01/29 04:45:00;;;;;;;;;;;4.10;99.90;;;;;;5028956;28;20385;-71
2023/01/29 04:47:32;;;;;;;;;;;4.00;99.90;;;;;;5010366;28;19944;-72
2023/01/29 04:50:19;;;;;;;;;;;4.10;99.90;;;;;;5011270;28;20007;-72
2023/01/29 04:52:48;;;;;;;;;;;4.10;99.90;;;;;;5027874;28;20319;-72
2023/01/29 04:55:24;;;;;;;;;;;4.00;99.90;;;;;;5010411;28;19927;-71
2023/01/29 04:57:56;;;;;;;;;;;4.00;99.90;;;;;;5012755;28;19921;-72
2023/01/29 05:00:26;;;;;;;;;;;4.10;99.90;;;;;;5010189;28;19921;-71
2023/01/29 05:02:52;;;;;;;;;;;4.00;99.90;;;;;;5012364;28;19929;-70
2023/01/29 05:05:18;;;;;;;;;;;4.00;99.90;;;;;;5013011;28;20020;-71
2023/01/29 05:07:45;;;;;;;;;;;4.10;99.90;;;;;;5012885;28;19925;-70
2023/01/29 05:10:11;;;;;;;;;;;4.00;99.90;;;;;;5011697;28;20581;-71
2023/01/29 05:12:37;;;;;;;;;;;4.00;99.90;;;;;;5013008;28;19975;-71
2023/01/29 05:15:06;;;;;;;;;;;4.00;99.90;;;;;;5011720;28;19933;-71
2023/01/29 05:17:31;;;;;;;;;;;4.00;99.90;;;;;;5012760;28;20370;-71
2023/01/29 05:19:57;;;;;;;;;;;4.00;99.90;;;;;;5011500;28;19932;-71
2023/01/29 05:22:23;;;;;;;;;;;4.00;99.90;;;;;;5010751;28;19921;-71
2023/01/29 05:24:49;;;;;;;;;;;4.00;99.90;;;;;;5011996;28;19921;-71
2023/01/29 05:30:04;;;;;;;;;;;4.00;99.90;;;;;;5013668;28;19921;-71
2023/01/29 05:32:30;;;;;;;;;;;4.00;99.90;;;;;;5010833;28;19936;-71
2023/01/29 05:34:58;;;;;;;;;;;4.00;99.90;;;;;;5009253;28;20274;-71
2023/01/29 05:37:24;;;;;;;;;;;4.00;99.90;;;;;;5010261;28;19978;-71
2023/01/29 05:39:49;;;;;;;;;;;4.00;99.90;;;;;;5010418;28;19948;-71
2023/01/29 05:42:15;;;;;;;;;;;4.00;99.90;;;;;;5010238;28;19944;-72
2023/01/29 05:44:40;;;;;;;;;;;4.00;99.90;;;;;;5008998;28;19921;-71
2023/01/29 05:47:06;;;;;;;;;;;4.00;99.90;;;;;;5011571;28;19931;-71
2023/01/29 05:49:31;;;;;;;;;;;4.00;99.90;;;;;;5005626;28;20928;-71
2023/01/29 05:51:57;;;;;;;;;;;4.00;99.90;;;;;;5008646;28;19925;-71
2023/01/29 05:54:22;;;;;;;;;;;4.00;99.90;;;;;;5008481;28;20367;-71
2023/01/29 05:56:48;;;;;;;;;;;3.90;99.90;;;;;;5011317;28;20004;-71
2023/01/29 05:59:14;;;;;;;;;;;3.90;99.90;;;;;;5011418;28;19929;-71
2023/01/29 06:01:39;;;;;;;;;;;3.90;99.90;;;;;;5010657;28;19926;-71
2023/01/29 06:04:05;;;;;;;;;;;3.90;99.90;;;;;;5009897;28;19921;-71
2023/01/29 06:06:30;;;;;;;;;;;3.90;99.90;;;;;;5012229;28;19929;-70
2023/01/29 06:08:56;;;;;;;;;;;3.90;99.90;;;;;;5011911;28;20401;-71
2023/01/29 06:11:22;;;;;;;;;;;3.90;99.90;;;;;;5010116;28;19921;-71
2023/01/29 06:13:48;;;;;;;;;;;4.00;99.90;;;;;;5010192;28;19929;-71
2023/01/29 06:16:13;;;;;;;;;;;3.90;99.90;;;;;;5007711;28;20005;-71
2023/01/29 06:18:39;;;;;;;;;;;4.00;99.90;;;;;;5008973;28;19926;-71
2023/01/29 06:21:06;;;;;;;;;;;4.00;99.90;;;;;;5010841;28;20015;-71
2023/01/29 06:23:31;;;;;;;;;;;3.90;99.90;;;;;;5011508;28;19968;-71
2023/01/29 06:26:04;;;;;;;;;;;4.10;99.90;;;;;;5009879;28;19953;-71
2023/01/29 06:28:29;;;;;;;;;;;3.90;99.90;;;;;;5008661;28;19969;-71
2023/01/29 06:30:59;;;;;;;;;;;4.00;99.90;;;;;;5009774;28;19957;-72
2023/01/29 06:33:25;;;;;;;;;;;3.90;99.90;;;;;;5010023;28;20007;-71
2023/01/29 06:35:54;;;;;;;;;;;4.20;99.90;;;;;;5011915;28;19928;-71
2023/01/29 06:38:20;;;;;;;;;;;3.90;99.90;;;;;;5014069;28;19921;-71
2023/01/29 06:40:45;;;;;;;;;;;4.00;99.90;;;;;;5013217;28;19929;-71
2023/01/29 06:43:11;;;;;;;;;;;4.00;99.90;;;;;;5010089;28;20316;-71
2023/01/29 06:45:36;;;;;;;;;;;4.00;99.90;;;;;;5007431;28;20305;-71
2023/01/29 06:48:02;;;;;;;;;;;4.00;99.90;;;;;;5009203;28;19925;-71
2023/01/29 06:50:27;;;;;;;;;;;4.00;99.90;;;;;;5009560;28;19928;-72
2023/01/29 06:52:53;;;;;;;;;;;4.20;99.90;;;;;;5011324;28;20011;-71
2023/01/29 06:55:18;;;;;;;;;;;4.00;99.90;;;;;;5009329;28;19931;-71
2023/01/29 06:57:44;;;;;;;;;;;4.00;99.90;;;;;;5010713;28;19922;-71
2023/01/29 07:00:10;;;;;;;;;;;4.20;99.90;;;;;;5008694;28;19944;-71
2023/01/29 07:02:35;;;;;;;;;;;4.00;99.90;;;;;;5011738;28;20367;-72
2023/01/29 07:05:01;;;;;;;;;;;4.00;99.90;;;;;;5010690;28;19961;-71
2023/01/29 07:07:26;;;;;;;;;;;4.00;99.90;;;;;;5023723;28;20350;-72
2023/01/29 07:09:52;;;;;;;;;;;4.00;99.90;;;;;;5007722;28;19923;-71
2023/01/29 07:12:17;;;;;;;;;;;4.00;99.90;;;;;;5006347;28;20020;-72
2023/01/29 07:14:43;;;;;;;;;;;4.00;99.90;;;;;;5009743;28;20020;-71
2023/01/29 07:17:08;;;;;;;;;;;4.00;99.90;;;;;;5009590;28;19928;-71
2023/01/29 07:19:34;;;;;;;;;;;4.00;99.90;;;;;;5011898;28;19925;-71
2023/01/29 07:22:02;;;;;;;;;;;4.00;99.90;;;;;;5009885;28;19921;-70
2023/01/29 07:24:27;;;;;;;;;;;4.10;99.90;;;;;;5010959;28;20017;-70
2023/01/29 07:26:53;;;;;;;;;;;4.00;99.90;;;;;;5011438;28;20020;-70
2023/01/29 07:29:18;;;;;;;;;;;4.00;99.90;;;;;;5011006;28;19983;-70
2023/01/29 07:31:44;;;;;;;;;;;4.20;99.90;;;;;;5009450;28;19991;-70
2023/01/29 07:34:09;;;;;;;;;;;4.20;99.90;;;;;;5011907;28;20294;-70
2023/01/29 07:36:36;;;;;;;;;;;4.00;99.90;;;;;;5008596;28;19932;-71
2023/01/29 07:39:01;;;;;;;;;;;4.10;99.90;;;;;;5007950;28;20028;-71
2023/01/29 07:41:27;;;;;;;;;;;4.10;99.90;;;;;;5009238;28;19922;-70
2023/01/29 07:43:53;;;;;;;;;;;4.00;99.90;;;;;;5007072;28;19921;-70
2023/01/29 07:46:19;;;;;;;;;;;4.10;99.90;;;;;;5003569;28;19921;-71
2023/01/29 07:48:44;;;;;;;;;;;4.10;99.90;;;;;;5002912;28;20001;-71
2023/01/29 07:51:10;;;;;;;;;;;4.00;99.90;;;;;;5009330;28;19928;-71
2023/01/29 07:53:35;;;;;;;;;;;4.10;99.90;;;;;;5011146;28;19975;-71
2023/01/29 07:56:01;;;;;;;;;;;4.10;99.90;;;;;;5013176;28;19921;-72
2023/01/29 07:58:27;;;;;;;;;;;4.30;99.90;;;;;;5014282;28;20389;-70
2023/01/29 08:00:52;;;;;;;;;;;4.10;99.90;;;;;;5012500;28;19976;-71
2023/01/29 08:03:21;;;;;;;;;;;4.10;99.90;;;;;;5013706;28;20027;-70
2023/01/29 08:05:47;;;;;;;;;;;4.10;99.90;;;;;;5014979;28;20049;-70
2023/01/29 08:08:12;;;;;;;;;;;4.10;99.90;;;;;;5013332;28;20048;-70
2023/01/29 08:10:38;;;;;;;;;;;4.20;99.90;;;;;;5013379;28;19925;-70
2023/01/29 08:13:04;;;;;;;;;;;4.20;99.90;;;;;;5012792;28;19948;-70
2023/01/29 08:15:31;;;;;;;;;;;4.20;99.90;;;;;;5013638;28;20366;-70
2023/01/29 08:17:57;;;;;;;;;;;4.20;99.90;;;;;;5011953;28;19998;-70
2023/01/29 08:20:22;;;;;;;;;;;4.30;99.90;;;;;;5010549;28;19921;-71
2023/01/29 08:22:48;;;;;;;;;;;4.30;99.90;;;;;;5011421;28;19983;-71
2023/01/29 08:25:14;;;;;;;;;;;4.20;99.90;;;;;;5007944;28;19929;-70
2023/01/29 08:27:39;;;;;;;;;;;4.20;99.90;;;;;;5012378;28;19922;-71
2023/01/29 08:30:05;;;;;;;;;;;4.20;99.90;;;;;;5007433;28;20308;-71
2023/01/29 08:32:31;;;;;;;;;;;4.20;99.90;;;;;;4995739;28;19921;-70
2023/01/29 08:34:56;;;;;;;;;;;4.40;99.90;;;;;;5012302;28;19975;-71
2023/01/29 08:37:22;;;;;;;;;;;4.20;99.90;;;;;;5011981;28;19925;-70
2023/01/29 08:39:48;;;;;;;;;;;4.20;99.90;;;;;;5015703;28;19929;-70
2023/01/29 08:42:13;;;;;;;;;;;4.20;99.90;;;;;;5009324;28;19925;-71
2023/01/29 08:44:39;;;;;;;;;;;4.20;99.90;;;;;;5016023;28;19971;-72
2023/01/29 08:47:04;;;;;;;;;;;4.20;99.90;;;;;;5013598;28;19929;-71
2023/01/29 08:49:30;;;;;;;;;;;3.60;99.90;;;;;;5012418;28;19976;-71
2023/01/29 08:51:56;;;;;;;;;;;4.30;99.90;;;;;;5013797;28;19973;-71
2023/01/29 08:54:21;;;;;;;;;;;4.20;99.90;;;;;;5012695;28;19967;-71
2023/01/29 08:56:47;;;;;;;;;;;4.20;99.90;;;;;;5013866;28;19926;-71
2023/01/29 08:59:13;;;;;;;;;;;4.20;99.90;;;;;;5011822;28;20286;-71
2023/01/29 09:01:38;;;;;;;;;;;3.70;99.90;;;;;;5012468;28;19967;-70
2023/01/29 09:04:04;;;;;;;;;;;4.30;99.90;;;;;;5013214;28;19925;-71
2023/01/29 09:06:29;;;;;;;;;;;4.70;99.90;;;;;;5007992;28;20377;-70
2023/01/29 09:08:55;;;;;;;;;;;4.30;99.90;;;;;;5010208;28;19922;-71
2023/01/29 09:11:21;;;;;;;;;;;4.30;99.90;;;;;;5011081;28;19925;-72
2023/01/29 09:13:46;;;;;;;;;;;4.30;99.90;;;;;;5009447;28;19921;-71
2023/01/29 09:16:12;;;;;;;;;;;4.40;99.90;;;;;;5007871;28;19921;-71
2023/01/29 09:18:37;;;;;;;;;;;4.40;99.90;;;;;;5010880;28;19925;-72
2023/01/29 09:21:03;;;;;;;;;;;4.40;99.90;;;;;;5010542;28;19984;-72
2023/01/29 09:23:29;;;;;;;;;;;4.40;99.90;;;;;;5012080;28;19928;-72
2023/01/29 09:25:55;;;;;;;;;;;4.40;99.90;;;;;;5012371;28;19925;-72
2023/01/29 09:28:20;;;;;;;;;;;4.60;99.90;;;;;;5009704;28;19943;-71
2023/01/29 09:30:46;;;;;;;;;;;4.50;99.90;;;;;;5012513;28;19921;-71
2023/01/29 09:33:11;;;;;;;;;;;4.50;99.90;;;;;;5013394;28;19929;-72
2023/01/29 09:35:39;;;;;;;;;;;4.60;99.90;;;;;;5013795;28;19921;-72
2023/01/29 09:38:04;;;;;;;;;;;4.60;99.90;;;;;;5010540;28;19929;-71
2023/01/29 09:40:30;;;;;;;;;;;4.70;99.90;;;;;;5010922;28;19921;-71
2023/01/29 09:43:04;;;;;;;;;;;4.70;99.90;;;;;;5018065;28;19985;-71
2023/01/29 09:45:30;;;;;;;;;;;4.70;99.90;;;;;;5014513;28;19925;-71
2023/01/29 09:48:00;;;;;;;;;;;4.70;99.90;;;;;;5011733;28;19921;-71
2023/01/29 09:50:36;;;;;;;;;;;4.70;99.90;;;;;;5009906;28;20363;-72
2023/01/29 09:53:06;;;;;;;;;;;4.70;99.90;;;;;;5009885;28;20315;-72
2023/01/29 09:55:34;;;;;;;;;;;4.70;99.90;;;;;;5023837;28;20398;-72
2023/01/29 09:58:13;;;;;;;;;;;4.80;99.90;;;;;;5012187;28;19921;-72
2023/01/29 10:00:57;;;;;;;;;;;4.80;99.90;;;;;;5011008;28;19929;-72
2023/01/29 10:03:31;;;;;;;;;;;4.80;99.90;;;;;;5010861;28;19925;-72
2023/01/29 10:06:15;;;;;;;;;;;4.80;99.90;;;;;;5013222;28;20337;-72
2023/01/29 10:08:43;;;;;;;;;;;4.80;99.90;;;;;;5010313;28;19956;-72
2023/01/29 10:11:09;;;;;;;;;;;4.80;99.90;;;;;;5008096;28;20067;-71
2023/01/29 10:13:41;;;;;;;;;;;4.90;99.90;;;;;;5007542;28;20024;-71
2023/01/29 10:16:12;;;;;;;;;;;4.80;99.90;;;;;;5011994;28;19921;-71
2023/01/29 10:18:44;;;;;;;;;;;4.90;99.90;;;;;;5013006;28;20271;-70
2023/01/29 10:21:15;;;;;;;;;;;4.90;99.90;;;;;;5010942;28;19976;-71
2023/01/29 10:23:59;;;;;;;;;;;4.90;99.90;;;;;;5010242;28;19976;-71
2023/01/29 10:26:25;;;;;;;;;;;4.90;99.90;;;;;;5010143;28;19922;-70
2023/01/29 10:28:54;;;;;;;;;;;4.90;99.90;;;;;;5013534;28;19921;-71
2023/01/29 10:31:22;;;;;;;;;;;4.90;99.90;;;;;;5016243;28;19928;-73
2023/01/29 10:33:50;;;;;;;;;;;5.20;99.90;;;;;;5015786;28;20597;-72
2023/01/29 10:36:23;;;;;;;;;;;5.10;99.90;;;;;;5014147;28;20032;-71
2023/01/29 10:38:49;;;;;;;;;;;5.00;99.90;;;;;;5008855;28;19961;-70
2023/01/29 10:41:24;;;;;;;;;;;5.00;99.90;;;;;;5005776;28;20036;-70
2023/01/29 10:43:56;;;;;;;;;;;5.00;99.90;;;;;;5010268;28;20359;-70
2023/01/29 10:46:29;;;;;;;;;;;5.00;99.90;;;;;;5004578;28;20386;-70
2023/01/29 10:48:55;;;;;;;;;;;4.90;99.90;;;;;;5011330;28;20259;-70
2023/01/29 10:51:33;;;;;;;;;;;5.00;99.90;;;;;;5012668;28;19921;-72
2023/01/29 10:53:58;;;;;;;;;;;5.00;99.90;;;;;;5007468;28;19971;-72
2023/01/29 10:56:36;;;;;;;;;;;5.00;99.90;;;;;;5008892;28;19964;-70
2023/01/29 10:59:24;;;;;;;;;;;5.00;99.90;;;;;;5009369;28;19971;-70
2023/01/29 11:01:50;;;;;;;;;;;5.00;99.90;;;;;;5010743;28;19948;-71
2023/01/29 11:04:15;;;;;;;;;;;5.10;99.90;;;;;;4998734;28;19929;-70
2023/01/29 11:06:41;;;;;;;;;;;5.30;99.90;;;;;;5018502;28;20274;-73
2023/01/29 11:09:07;;;;;;;;;;;5.10;99.90;;;;;;5019429;28;19921;-70
2023/01/29 11:11:38;;;;;;;;;;;5.20;99.90;;;;;;5015589;28;19980;-70
2023/01/29 11:14:07;;;;;;;;;;;5.10;99.90;;;;;;5009117;28;19953;-70
2023/01/29 11:16:59;;;;;;;;;;;5.10;99.90;;;;;;5015902;28;19928;-70
2023/01/29 11:19:38;;;;;;;;;;;5.20;99.90;;;;;;5017870;28;19921;-70
2023/01/29 11:22:04;;;;;;;;;;;5.20;99.90;;;;;;5015773;28;19952;-70
2023/01/29 11:24:29;;;;;;;;;;;5.30;99.90;;;;;;4998107;28;19922;-71
2023/01/29 11:26:56;;;;;;;;;;;5.20;99.90;;;;;;5013339;28;19925;-71
2023/01/29 11:29:39;;;;;;;;;;;5.30;99.90;;;;;;5017650;28;19928;-71
2023/01/29 11:32:06;;;;;;;;;;;5.20;99.90;;;;;;5018371;28;19999;-71
2023/01/29 11:34:32;;;;;;;;;;;5.20;99.90;;;;;;5019230;28;19921;-70
2023/01/29 11:37:02;;;;;;;;;;;5.30;99.90;;;;;;5018947;28;19944;-70
2023/01/29 11:39:29;;;;;;;;;;;5.20;99.90;;;;;;5006548;28;19925;-70
2023/01/29 11:41:58;;;;;;;;;;;5.20;99.90;;;;;;5024891;28;19921;-70
2023/01/29 11:44:35;;;;;;;;;;;5.20;99.90;;;;;;5028091;28;19929;-71
2023/01/29 11:47:11;;;;;;;;;;;5.20;99.90;;;;;;5023995;28;19932;-71
2023/01/29 11:49:38;;;;;;;;;;;5.10;99.90;;;;;;5024754;28;20021;-71
2023/01/29 11:52:05;;;;;;;;;;;5.20;99.90;;;;;;5025889;28;19921;-71
2023/01/29 11:54:51;;;;;;;;;;;5.20;99.90;;;;;;5024767;28;20000;-72
2023/01/29 11:57:19;;;;;;;;;;;5.10;99.90;;;;;;5007051;28;19931;-71
2023/01/29 11:59:48;;;;;;;;;;;5.20;99.90;;;;;;5022612;28;19921;-72
2023/01/29 12:02:20;;;;;;;;;;;5.20;99.90;;;;;;5019986;28;20279;-72
2023/01/29 12:04:46;;;;;;;;;;;5.20;99.90;;;;;;5021832;28;19921;-71
2023/01/29 12:07:13;;;;;;;;;;;5.20;99.90;;;;;;5017029;28;19952;-71
2023/01/29 12:09:39;;;;;;;;;;;5.20;99.90;;;;;;5015816;28;20274;-69
2023/01/29 12:12:27;;;;;;;;;;;5.20;99.90;;;;;;5017295;28;19922;-70
2023/01/29 12:15:11;;;;;;;;;;;5.30;99.90;;;;;;5013080;28;20023;-70
2023/01/29 12:17:38;;;;;;;;;;;5.20;99.90;;;;;;5012312;28;19944;-69
2023/01/29 12:20:13;;;;;;;;;;;5.20;99.90;;;;;;5012693;28;19925;-69
2023/01/29 12:22:46;;;;;;;;;;;5.20;99.90;;;;;;5013526;28;19921;-69
2023/01/29 12:25:33;;;;;;;;;;;5.20;99.90;;;;;;5013531;28;19918;-69
2023/01/29 12:28:02;;;;;;;;;;;5.20;99.90;;;;;;5014645;28;19928;-69
2023/01/29 12:30:28;;;;;;;;;;;5.20;99.90;;;;;;5009485;28;20562;-69
2023/01/29 12:32:54;;;;;;;;;;;5.20;99.90;;;;;;5014367;28;19943;-69
2023/01/29 12:35:20;;;;;;;;;;;5.20;99.90;;;;;;5013694;28;20417;-70
2023/01/29 12:37:55;;;;;;;;;;;5.20;99.90;;;;;;5015691;28;19930;-70
2023/01/29 12:40:23;;;;;;;;;;;5.30;99.90;;;;;;5009831;28;20013;-71
2023/01/29 12:42:52;;;;;;;;;;;5.30;99.90;;;;;;5012676;28;19921;-69
2023/01/29 12:45:18;;;;;;;;;;;5.30;99.90;;;;;;5011999;28;20342;-70
2023/01/29 12:48:04;;;;;;;;;;;5.30;99.90;;;;;;5011612;28;19922;-70
2023/01/29 12:50:34;;;;;;;;;;;5.50;99.90;;;;;;5009950;28;19967;-70
2023/01/29 12:53:18;;;;;;;;;;;5.30;99.90;;;;;;5014303;28;19925;-70
2023/01/29 12:55:54;;;;;;;;;;;5.30;99.90;;;;;;5007901;28;19925;-70
2023/01/29 12:58:41;;;;;;;;;;;5.30;99.90;;;;;;5012932;28;20280;-71
2023/01/29 13:01:12;;;;;;;;;;;5.40;99.90;;;;;;5003614;28;20345;-69
2023/01/29 13:03:47;;;;;;;;;;;5.40;99.90;;;;;;5003411;28;20020;-71
2023/01/29 13:06:17;;;;;;;;;;;5.40;99.90;;;;;;5006881;28;19922;-72
2023/01/29 13:08:48;;;;;;;;;;;5.40;99.90;;;;;;5010231;28;19932;-71
2023/01/29 13:11:21;;;;;;;;;;;5.40;99.90;;;;;;5012773;28;19967;-73
2023/01/29 13:13:52;;;;;;;;;;;5.40;99.90;;;;;;5012747;28;20367;-72
2023/01/29 13:16:22;;;;;;;;;;;5.40;99.90;;;;;;5010726;28;19936;-73
2023/01/29 13:19:02;;;;;;;;;;;5.40;99.90;;;;;;5011402;28;19929;-73
2023/01/29 13:21:35;;;;;;;;;;;5.40;99.90;;;;;;5007278;28;20410;-73
2023/01/29 13:24:21;;;;;;;;;;;5.30;99.90;;;;;;5012728;28;19949;-72
2023/01/29 13:26:47;;;;;;;;;;;5.30;99.90;;;;;;5009287;28;19928;-72
2023/01/29 13:29:20;;;;;;;;;;;5.40;99.90;;;;;;5008686;28;19925;-71
2023/01/29 13:31:50;;;;;;;;;;;5.40;99.90;;;;;;5007357;28;19929;-71
2023/01/29 13:34:20;;;;;;;;;;;5.30;99.90;;;;;;5028788;28;19929;-72
2023/01/29 13:36:47;;;;;;;;;;;5.30;99.90;;;;;;5010873;28;20386;-72
2023/01/29 13:39:28;;;;;;;;;;;5.40;99.90;;;;;;5012430;28;19929;-72
2023/01/29 13:41:54;;;;;;;;;;;5.30;99.90;;;;;;5006543;28;19975;-73
2023/01/29 13:44:20;;;;;;;;;;;5.30;99.90;;;;;;5018856;28;20546;-73
2023/01/29 13:46:48;;;;;;;;;;;5.30;99.90;;;;;;5010976;28;19922;-73
2023/01/29 13:49:25;;;;;;;;;;;5.40;99.90;;;;;;5012603;28;20343;-73
2023/01/29 13:51:51;;;;;;;;;;;5.40;99.90;;;;;;5013920;28;19921;-74
2023/01/29 13:54:19;;;;;;;;;;;5.40;99.90;;;;;;5012612;28;20441;-73
2023/01/29 13:56:55;;;;;;;;;;;5.40;99.90;;;;;;4996977;28;20420;-73
2023/01/29 13:59:22;;;;;;;;;;;5.40;99.90;;;;;;5013303;28;20325;-72
2023/01/29 14:01:47;;;;;;;;;;;5.30;99.90;;;;;;5028815;28;19964;-73
2023/01/29 14:04:22;;;;;;;;;;;5.30;99.90;;;;;;5013993;28;19976;-72
2023/01/29 14:06:49;;;;;;;;;;;5.30;99.90;;;;;;5016688;28;19925;-72
2023/01/29 14:09:33;;;;;;;;;;;5.50;99.90;;;;;;5022956;28;19921;-72
2023/01/29 14:11:59;;;;;;;;;;;5.20;99.90;;;;;;5019391;28;19929;-72
2023/01/29 14:14:43;;;;;;;;;;;5.20;99.90;;;;;;5013309;28;19921;-72
2023/01/29 14:17:08;;;;;;;;;;;5.20;99.90;;;;;;5007653;28;19921;-72
2023/01/29 14:19:34;;;;;;;;;;;5.20;99.90;;;;;;5012970;28;19940;-72
2023/01/29 14:21:59;;;;;;;;;;;5.20;99.90;;;;;;5013785;28;19928;-72
2023/01/29 14:24:28;;;;;;;;;;;5.20;99.90;;;;;;5013132;28;19929;-72
2023/01/29 14:26:54;;;;;;;;;;;5.20;99.90;;;;;;5012480;28;19925;-72
2023/01/29 14:29:24;;;;;;;;;;;5.20;99.90;;;;;;5013172;28;19929;-73
2023/01/29 14:31:56;;;;;;;;;;;5.10;99.90;;;;;;5028661;28;20289;-72
2023/01/29 14:34:21;;;;;;;;;;;5.20;99.90;;;;;;5012791;28;20404;-73
2023/01/29 14:36:53;;;;;;;;;;;5.10;99.90;;;;;;5013065;28;19964;-72
2023/01/29 14:39:42;;;;;;;;;;;5.10;99.90;;;;;;5010357;28;19943;-73
2023/01/29 14:42:19;;;;;;;;;;;5.10;99.90;;;;;;5006374;28;19928;-73
2023/01/29 14:44:45;;;;;;;;;;;5.10;99.90;;;;;;5012446;28;20363;-72
2023/01/29 14:47:18;;;;;;;;;;;5.10;99.90;;;;;;5025691;28;20031;-72
2023/01/29 14:49:54;;;;;;;;;;;5.10;99.90;;;;;;5012840;28;19925;-72
2023/01/29 14:52:32;;;;;;;;;;;5.10;99.90;;;;;;5025072;28;19922;-73
2023/01/29 14:54:59;;;;;;;;;;;5.10;99.90;;;;;;5012008;28;19979;-73
2023/01/29 14:57:25;;;;;;;;;;;5.10;99.90;;;;;;5010984;28;20010;-72
2023/01/29 15:00:04;;;;;;;;;;;5.10;99.90;;;;;;5010363;28;19927;-72
2023/01/29 15:02:36;;;;;;;;;;;5.00;99.90;;;;;;4994733;28;19926;-72
2023/01/29 15:05:03;;;;;;;;;;;5.10;99.90;;;;;;5011225;28;19994;-73
2023/01/29 15:07:33;;;;;;;;;;;5.00;99.90;;;;;;5012237;28;19921;-72
2023/01/29 15:10:13;;;;;;;;;;;5.10;99.90;;;;;;5013096;28;19917;-72